Time;durP1;ratioP1;P1;durP2;ratioP2;P2;SDS_P1;SDS_P2;PMS_P1;PMS_P2;Temp;Humidity;BMP_temperature;BMP_pressure;BME280_temperature;BME280_humidity;BME280_pressure;Samples;Min_cycle;Max_cycle;Signal;HPM_P1;HPM_P2
2021/09/14 00:01:32;;;;;;;15.80;6.10;;;;;;;15.84;77.69;100570.66;111686;1203;25140;-60
2021/09/14 00:04:03;;;;;;;17.20;6.20;;;;;;;15.83;77.78;100567.77;111717;1203;24206;-60
2021/09/14 00:06:39;;;;;;;15.20;6.30;;;;;;;15.82;77.81;100573.27;111786;1203;22458;-59
2021/09/14 00:09:10;;;;;;;16.00;6.90;;;;;;;15.83;77.91;100569.44;112077;1203;22450;-60
2021/09/14 00:11:41;;;;;;;16.50;6.90;;;;;;;15.84;77.85;100566.32;111959;1203;22456;-59
2021/09/14 00:14:12;;;;;;;17.10;6.40;;;;;;;15.84;77.85;100570.56;112025;1203;22452;-59
2021/09/14 00:16:42;;;;;;;19.60;7.60;;;;;;;15.85;77.90;100573.33;111991;1203;22434;-59
2021/09/14 00:19:15;;;;;;;17.70;7.30;;;;;;;15.83;77.96;100577.64;111755;1203;22398;-59
2021/09/14 00:21:46;;;;;;;15.00;6.70;;;;;;;15.83;78.20;100580.64;111696;1203;22401;-60
2021/09/14 00:24:17;;;;;;;18.10;7.10;;;;;;;15.80;78.28;100579.45;112176;1203;22588;-60
2021/09/14 00:26:48;;;;;;;13.40;6.30;;;;;;;15.79;78.13;100577.66;111950;1203;25141;-60
2021/09/14 00:29:19;;;;;;;19.10;6.30;;;;;;;15.80;78.25;100581.91;111668;1203;22474;-60
2021/09/14 00:31:50;;;;;;;17.40;7.10;;;;;;;15.78;78.43;100580.52;111789;1203;22536;-60
2021/09/14 00:34:22;;;;;;;17.00;6.40;;;;;;;15.77;78.34;100579.59;111739;1203;25141;-60
2021/09/14 00:36:53;;;;;;;15.60;6.00;;;;;;;15.75;78.46;100578.02;111830;1203;24900;-59
2021/09/14 00:39:24;;;;;;;15.80;6.50;;;;;;;15.73;78.49;100578.55;111917;1203;22444;-59
2021/09/14 00:41:56;;;;;;;16.00;6.00;;;;;;;15.69;78.63;100579.56;112235;1203;22456;-60
2021/09/14 00:44:27;;;;;;;18.80;6.90;;;;;;;15.67;78.59;100577.21;112087;1203;22439;-61
2021/09/14 00:47:00;;;;;;;17.10;6.40;;;;;;;15.67;78.73;100574.03;112190;1203;22691;-58
2021/09/14 00:49:34;;;;;;;15.70;5.90;;;;;;;15.65;78.73;100574.70;111806;1203;24331;-61
2021/09/14 00:52:08;;;;;;;17.20;7.20;;;;;;;15.64;78.82;100569.69;111780;1203;22456;-59
2021/09/14 00:54:42;;;;;;;17.60;6.40;;;;;;;15.65;78.81;100567.89;111810;1203;22463;-61
2021/09/14 00:57:13;;;;;;;15.50;6.40;;;;;;;15.65;78.71;100568.70;111870;1203;22503;-59
2021/09/14 00:59:44;;;;;;;15.50;5.60;;;;;;;15.62;78.81;100567.27;112043;1203;22455;-61
2021/09/14 01:02:15;;;;;;;16.20;6.80;;;;;;;15.61;78.81;100563.73;111902;1203;22588;-61
2021/09/14 01:04:46;;;;;;;12.20;5.30;;;;;;;15.58;78.59;100566.73;111601;1204;22506;-59
2021/09/14 01:07:18;;;;;;;14.10;5.60;;;;;;;15.54;78.58;100566.93;111750;1203;24091;-62
2021/09/14 01:09:54;;;;;;;16.80;6.30;;;;;;;15.51;78.64;100570.23;112113;1203;22866;-59
2021/09/14 01:12:25;;;;;;;17.70;6.50;;;;;;;15.47;78.68;100571.56;111782;1203;24069;-58
2021/09/14 01:14:57;;;;;;;14.30;6.30;;;;;;;15.44;78.62;100570.86;112037;1203;22440;-60
2021/09/14 01:17:29;;;;;;;13.20;5.40;;;;;;;15.40;78.71;100565.76;112167;1203;24106;-60
2021/09/14 01:20:02;;;;;;;17.50;6.20;;;;;;;15.37;78.66;100561.75;111842;1203;22443;-60
2021/09/14 01:22:33;;;;;;;21.30;6.80;;;;;;;15.34;78.63;100565.06;111926;1203;25165;-60
2021/09/14 01:25:18;;;;;;;20.90;8.00;;;;;;;15.30;78.64;100568.11;111931;1203;22446;-58
2021/09/14 01:27:52;;;;;;;16.60;7.80;;;;;;;15.28;78.71;100567.44;111899;1202;22857;-60
2021/09/14 01:30:22;;;;;;;16.90;7.30;;;;;;;15.24;78.48;100566.60;112156;1203;24042;-60
2021/09/14 01:32:55;;;;;;;19.80;7.10;;;;;;;15.19;78.38;100571.59;112011;1203;25098;-59
2021/09/14 01:35:28;;;;;;;16.10;6.70;;;;;;;15.13;78.55;100574.02;112068;1203;24137;-60
2021/09/14 01:38:00;;;;;;;14.80;6.50;;;;;;;15.10;78.70;100575.16;111733;1203;22440;-60
2021/09/14 01:40:31;;;;;;;22.60;7.70;;;;;;;15.08;78.93;100577.14;111899;1203;22472;-59
2021/09/14 01:43:04;;;;;;;16.80;6.50;;;;;;;15.06;78.93;100575.81;111991;1203;22482;-60
2021/09/14 01:45:36;;;;;;;17.60;6.40;;;;;;;15.02;78.57;100577.01;111843;1203;22450;-60
2021/09/14 01:48:08;;;;;;;14.20;5.60;;;;;;;14.97;78.30;100571.50;111932;1203;22652;-61
2021/09/14 01:50:40;;;;;;;16.10;6.60;;;;;;;14.90;78.28;100574.43;111951;1203;22476;-61
2021/09/14 01:53:12;;;;;;;16.20;5.50;;;;;;;14.82;78.17;100575.24;111772;1203;25131;-65
2021/09/14 01:55:44;;;;;;;16.00;5.30;;;;;;;14.76;77.99;100574.28;111764;1204;23118;-61
2021/09/14 01:58:16;;;;;;;14.90;4.80;;;;;;;14.71;78.03;100576.17;111935;1203;22436;-61
2021/09/14 02:00:55;;;;;;;15.10;5.40;;;;;;;14.65;77.90;100572.30;111993;1203;24103;-59
2021/09/14 02:03:32;;;;;;;15.00;5.20;;;;;;;14.59;77.99;100577.82;111913;1204;22437;-59
2021/09/14 02:43:28;;;;;;;8.90;1.90;;;;;;;13.76;78.29;100577.35;111654;1207;22912;-60
2021/09/14 03:00:03;;;;;;;9.30;3.00;;;;;;;13.49;78.13;100571.66;111426;1207;24521;-61
2021/09/14 03:02:35;;;;;;;8.80;2.40;;;;;;;13.46;77.85;100569.73;111638;1206;24078;-60
2021/09/14 03:05:08;;;;;;;8.40;2.80;;;;;;;13.41;77.90;100568.70;111634;1206;25068;-59
2021/09/14 03:07:40;;;;;;;7.30;2.80;;;;;;;13.35;77.79;100563.02;111724;1206;26658;-61
2021/09/14 03:10:12;;;;;;;9.20;2.80;;;;;;;13.30;77.75;100566.31;111677;1206;26327;-60
2021/09/14 03:12:43;;;;;;;11.60;2.50;;;;;;;13.24;77.72;100568.58;111986;1206;22459;-60
2021/09/14 03:15:14;;;;;;;6.80;2.40;;;;;;;13.18;77.83;100566.56;111675;1206;22456;-61
2021/09/14 03:17:45;;;;;;;10.60;2.90;;;;;;;13.13;78.00;100568.06;111785;1207;22456;-61
2021/09/14 03:20:16;;;;;;;10.30;2.80;;;;;;;13.09;78.04;100572.00;111908;1203;22475;-61
2021/09/14 03:22:47;;;;;;;11.70;3.50;;;;;;;13.06;78.21;100579.54;111947;1203;25251;-60
2021/09/14 03:25:20;;;;;;;10.00;3.20;;;;;;;13.01;78.17;100579.14;111999;1203;22557;-60
2021/09/14 03:27:51;;;;;;;8.20;3.00;;;;;;;12.96;78.09;100578.20;111988;1203;23685;-61
2021/09/14 03:30:23;;;;;;;9.70;3.00;;;;;;;12.92;78.06;100578.55;111964;1203;26324;-60
2021/09/14 03:32:53;;;;;;;8.90;3.60;;;;;;;12.89;78.14;100581.67;112121;1203;24157;-64
2021/09/14 03:35:24;;;;;;;11.40;3.60;;;;;;;12.85;78.36;100583.95;111810;1203;22456;-61
2021/09/14 03:37:55;;;;;;;11.40;3.40;;;;;;;12.82;78.65;100577.17;111790;1203;24431;-59
2021/09/14 03:40:26;;;;;;;11.70;3.40;;;;;;;12.80;78.92;100576.69;111893;1203;25390;-60
2021/09/14 03:42:57;;;;;;;10.50;4.00;;;;;;;12.76;78.69;100571.27;111867;1204;26301;-61
2021/09/14 03:45:28;;;;;;;10.20;3.90;;;;;;;12.69;78.52;100573.27;112027;1203;23776;-60
2021/09/14 03:48:00;;;;;;;8.30;2.50;;;;;;;12.63;78.49;100571.23;111971;1203;25426;-62
2021/09/14 03:50:31;;;;;;;9.90;3.10;;;;;;;12.57;78.36;100565.94;111986;1203;22457;-59
2021/09/14 03:53:01;;;;;;;7.10;2.70;;;;;;;12.53;78.12;100567.30;112100;1203;22456;-59
2021/09/14 03:55:32;;;;;;;7.10;2.40;;;;;;;12.50;78.20;100563.63;111962;1203;22465;-60
2021/09/14 03:58:03;;;;;;;8.50;2.80;;;;;;;12.46;78.18;100565.14;112129;1203;22447;-61
2021/09/14 04:00:35;;;;;;;9.20;2.90;;;;;;;12.44;78.17;100568.72;112271;1203;22449;-59
2021/09/14 04:03:08;;;;;;;7.90;2.70;;;;;;;12.39;78.14;100565.48;112200;1205;24186;-60
2021/09/14 04:05:57;;;;;;;8.80;2.80;;;;;;;12.35;78.22;100563.69;112079;1204;22536;-59
2021/09/14 04:11:18;;;;;;;10.80;2.60;;;;;;;12.28;78.20;100574.60;112002;1204;24144;-60
2021/09/14 04:13:49;;;;;;;12.80;3.20;;;;;;;12.25;78.26;100572.88;112258;1203;22456;-61
2021/09/14 04:16:21;;;;;;;11.00;3.20;;;;;;;12.22;78.17;100576.33;112222;1203;22428;-61
2021/09/14 04:18:52;;;;;;;9.50;2.60;;;;;;;12.17;78.24;100577.34;112110;1203;22456;-61
2021/09/14 04:21:23;;;;;;;11.60;3.00;;;;;;;12.14;78.11;100577.06;112300;1203;25163;-59
2021/09/14 04:23:54;;;;;;;9.70;3.60;;;;;;;12.11;78.02;100573.70;112274;1204;22456;-60
2021/09/14 04:26:25;;;;;;;9.80;2.80;;;;;;;12.08;78.00;100574.17;112038;1203;22453;-61
2021/09/14 04:28:56;;;;;;;9.80;3.00;;;;;;;12.06;78.16;100572.23;111932;1204;22440;-60
2021/09/14 04:31:27;;;;;;;11.90;3.10;;;;;;;12.02;78.05;100569.52;112047;1203;25100;-60
2021/09/14 04:33:58;;;;;;;9.10;3.00;;;;;;;11.99;78.05;100569.40;112318;1208;22974;-61
2021/09/14 04:36:30;;;;;;;12.30;3.60;;;;;;;11.95;78.19;100570.05;112136;1204;22483;-60
2021/09/14 04:39:01;;;;;;;8.90;3.20;;;;;;;11.93;78.15;100569.55;112034;1204;25751;-61
2021/09/14 04:41:35;;;;;;;13.80;3.60;;;;;;;11.91;78.33;100566.71;112219;1204;22424;-60
2021/09/14 04:44:07;;;;;;;12.10;3.70;;;;;;;11.91;78.54;100569.11;112085;1204;22542;-59
2021/09/14 04:46:38;;;;;;;13.20;3.70;;;;;;;11.92;78.56;100571.77;112035;1204;24163;-60
2021/09/14 04:49:12;;;;;;;12.40;3.20;;;;;;;11.90;78.50;100575.60;111873;1204;25317;-64
2021/09/14 04:51:43;;;;;;;12.30;3.40;;;;;;;11.89;78.62;100574.97;111770;1197;25174;-61
2021/09/14 04:54:14;;;;;;;11.30;3.20;;;;;;;11.87;78.92;100578.84;111672;1205;25160;-61
2021/09/14 04:56:46;;;;;;;13.00;3.90;;;;;;;11.86;78.84;100578.48;111853;1204;23641;-60
2021/09/14 04:59:17;;;;;;;11.70;3.70;;;;;;;11.85;78.80;100576.12;111688;1204;22364;-60
2021/09/14 05:01:48;;;;;;;12.10;3.90;;;;;;;11.84;78.85;100579.52;111552;1204;25105;-60
2021/09/14 05:04:20;;;;;;;10.90;3.70;;;;;;;11.84;78.92;100578.08;111657;1204;25261;-62
2021/09/14 05:06:50;;;;;;;11.70;3.40;;;;;;;11.84;79.01;100580.08;113503;1204;22443;-62
2021/09/14 05:09:21;;;;;;;12.70;3.00;;;;;;;11.85;78.93;100578.36;112240;1203;22445;-60
2021/09/14 05:11:52;;;;;;;9.00;3.20;;;;;;;11.86;79.11;100579.64;112283;1203;22435;-57
2021/09/14 05:14:25;;;;;;;9.80;3.60;;;;;;;11.87;79.40;100576.05;112206;1204;22443;-56
2021/09/14 05:16:56;;;;;;;11.70;3.50;;;;;;;11.88;79.53;100573.80;112289;1202;22555;-61
2021/09/14 05:19:32;;;;;;;13.30;3.50;;;;;;;11.90;79.66;100572.96;111876;1204;25218;-58
2021/09/14 05:22:06;;;;;;;11.40;3.50;;;;;;;11.94;79.90;100574.30;112040;1203;25257;-58
2021/09/14 05:24:37;;;;;;;9.70;3.50;;;;;;;12.00;80.19;100571.66;112170;1203;24045;-60
2021/09/14 05:27:10;;;;;;;11.10;4.20;;;;;;;12.08;80.58;100573.35;111983;1204;25203;-60
2021/09/14 05:32:26;;;;;;;14.60;5.40;;;;;;;12.29;81.37;100569.13;112047;1203;23076;-62
2021/09/14 05:34:57;;;;;;;15.20;6.10;;;;;;;12.40;81.38;100572.61;112241;1203;24808;-59
2021/09/14 05:37:28;;;;;;;15.10;5.80;;;;;;;12.49;81.50;100574.82;112154;1204;22436;-61
2021/09/14 05:40:20;;;;;;;14.50;6.10;;;;;;;12.59;81.65;100574.67;112185;1205;22394;-59
2021/09/14 05:42:51;;;;;;;17.90;6.90;;;;;;;12.68;81.65;100565.66;112102;1208;22464;-62
2021/09/14 05:45:22;;;;;;;21.60;6.70;;;;;;;12.76;81.90;100565.46;112142;1204;24753;-60
2021/09/14 05:47:53;;;;;;;18.40;7.80;;;;;;;12.82;82.00;100569.08;112190;1207;22476;-62
2021/09/14 05:50:24;;;;;;;21.30;7.80;;;;;;;12.88;82.22;100573.90;112083;1204;22466;-60
2021/09/14 05:52:55;;;;;;;18.50;7.00;;;;;;;12.93;82.39;100573.16;112145;1203;22451;-59
2021/09/14 05:55:26;;;;;;;18.50;6.80;;;;;;;12.99;82.57;100566.58;112238;1204;25106;-60
2021/09/14 05:57:57;;;;;;;18.90;7.20;;;;;;;13.06;82.65;100566.85;112128;1205;22501;-59
2021/09/14 06:00:28;;;;;;;21.80;6.30;;;;;;;13.14;82.67;100571.09;112080;1204;22470;-61
2021/09/14 06:02:59;;;;;;;16.00;7.00;;;;;;;13.20;82.77;100568.02;111964;1207;24602;-61
2021/09/14 06:05:30;;;;;;;23.40;7.60;;;;;;;13.26;82.81;100569.21;112127;1203;22456;-61
2021/09/14 06:08:01;;;;;;;19.40;6.90;;;;;;;13.32;82.90;100566.45;112143;1205;22534;-60
2021/09/14 06:10:32;;;;;;;17.20;7.80;;;;;;;13.38;83.00;100572.84;111802;1204;25128;-58
2021/09/14 06:13:03;;;;;;;19.10;7.10;;;;;;;13.44;83.09;100569.05;111579;1203;23015;-58
2021/09/14 06:15:35;;;;;;;14.90;5.10;;;;;;;13.51;83.11;100573.35;111502;1205;26317;-58
2021/09/14 06:18:06;;;;;;;15.70;6.30;;;;;;;13.58;82.99;100572.73;111638;1203;24092;-60
2021/09/14 06:20:37;;;;;;;14.60;5.70;;;;;;;13.65;83.01;100575.98;112221;1203;22439;-59
2021/09/14 06:23:08;;;;;;;18.70;6.30;;;;;;;13.74;82.77;100580.44;111790;1205;22414;-60
2021/09/14 06:25:41;;;;;;;18.30;6.10;;;;;;;13.82;82.63;100579.56;111497;1203;26456;-59
2021/09/14 06:28:14;;;;;;;18.10;7.40;;;;;;;13.90;82.90;100581.41;111600;1206;25239;-59
2021/09/14 06:30:45;;;;;;;14.50;6.30;;;;;;;13.97;82.63;100582.36;112283;1209;22456;-60
2021/09/14 06:33:16;;;;;;;15.10;6.40;;;;;;;14.04;82.74;100583.77;111780;1205;24147;-59
2021/09/14 06:35:48;;;;;;;15.10;6.10;;;;;;;14.10;82.57;100586.84;111610;1203;23930;-60
2021/09/14 06:38:19;;;;;;;17.30;5.90;;;;;;;14.16;82.50;100587.91;111800;1208;25784;-59
2021/09/14 06:40:50;;;;;;;16.30;6.00;;;;;;;14.22;82.55;100587.42;111775;1205;25154;-59
2021/09/14 06:43:23;;;;;;;15.70;6.30;;;;;;;14.30;82.59;100594.09;111633;1205;22981;-59
2021/09/14 06:45:53;;;;;;;16.20;6.20;;;;;;;14.37;82.47;100591.32;111555;1203;24109;-59
2021/09/14 06:48:24;;;;;;;16.40;6.60;;;;;;;14.43;82.32;100589.95;111565;1203;24088;-61
2021/09/14 06:50:56;;;;;;;15.50;7.50;;;;;;;14.50;82.41;100595.16;111655;1205;24139;-59
2021/09/14 06:53:29;;;;;;;16.00;6.30;;;;;;;14.57;82.74;100598.86;111617;1205;22453;-60
2021/09/14 06:56:02;;;;;;;14.30;5.70;;;;;;;14.65;82.42;100599.58;111604;1207;22896;-59
2021/09/14 06:58:32;;;;;;;14.70;5.90;;;;;;;14.73;82.33;100598.52;111556;1205;22456;-59
2021/09/14 07:01:05;;;;;;;17.60;6.50;;;;;;;14.81;82.28;100593.11;111565;1204;24127;-59
2021/09/14 07:03:36;;;;;;;15.90;6.50;;;;;;;14.88;82.07;100597.41;111637;1206;22463;-59
2021/09/14 07:06:07;;;;;;;18.50;6.20;;;;;;;14.97;82.03;100604.08;111546;1206;24077;-59
2021/09/14 07:08:38;;;;;;;19.00;5.50;;;;;;;15.06;82.07;100603.62;111646;1204;24069;-59
2021/09/14 07:11:09;;;;;;;18.10;6.70;;;;;;;15.15;81.84;100603.67;111795;1204;22443;-59
2021/09/14 07:13:41;;;;;;;16.20;5.50;;;;;;;15.23;81.70;100603.52;111711;1205;25154;-62
2021/09/14 07:16:12;;;;;;;19.80;6.20;;;;;;;15.32;81.57;100601.58;111505;1204;22443;-59
2021/09/14 07:18:44;;;;;;;17.10;6.30;;;;;;;15.42;81.61;100604.39;111704;1205;22899;-58
2021/09/14 07:21:15;;;;;;;16.00;7.10;;;;;;;15.52;81.43;100607.84;111645;1202;24132;-59
2021/09/14 07:23:46;;;;;;;17.20;5.70;;;;;;;15.61;81.26;100607.68;111692;1199;23404;-58
2021/09/14 07:26:17;;;;;;;19.10;5.40;;;;;;;15.72;81.47;100606.81;112506;1203;22723;-60
2021/09/14 07:28:48;;;;;;;14.80;5.60;;;;;;;15.82;81.13;100609.05;111617;1202;25108;-59
2021/09/14 07:31:19;;;;;;;14.60;5.50;;;;;;;15.93;81.14;100610.15;111790;1203;23086;-60
2021/09/14 07:33:50;;;;;;;13.20;5.50;;;;;;;16.04;81.07;100606.45;111781;1203;22561;-60
2021/09/14 07:36:21;;;;;;;15.80;5.60;;;;;;;16.12;80.80;100606.88;111980;1205;24104;-60
2021/09/14 07:38:54;;;;;;;12.80;4.90;;;;;;;16.23;80.60;100605.31;111745;1205;22476;-59
2021/09/14 07:41:25;;;;;;;12.10;4.30;;;;;;;16.33;80.39;100608.26;111575;1205;22442;-60
2021/09/14 07:43:56;;;;;;;17.40;5.60;;;;;;;16.41;80.32;100612.62;111548;1202;23802;-60
2021/09/14 07:46:28;;;;;;;15.20;5.00;;;;;;;16.46;79.99;100611.64;111509;1205;24135;-56
2021/09/14 07:49:00;;;;;;;17.80;4.50;;;;;;;16.52;79.90;100611.48;111513;1203;22467;-60
2021/09/14 07:51:32;;;;;;;10.90;3.60;;;;;;;16.59;79.84;100616.77;111767;1202;24112;-59
2021/09/14 07:54:03;;;;;;;10.60;3.70;;;;;;;16.67;79.75;100614.98;111564;1203;25220;-59
2021/09/14 07:56:35;;;;;;;11.70;3.70;;;;;;;16.75;79.63;100617.08;111671;1202;22454;-59
2021/09/14 07:59:09;;;;;;;10.90;3.10;;;;;;;16.83;79.58;100617.79;111750;1204;25171;-61
2021/09/14 08:01:40;;;;;;;11.80;4.30;;;;;;;16.91;79.56;100615.63;111768;1204;24192;-60
2021/09/14 08:04:11;;;;;;;10.60;3.50;;;;;;;16.97;79.08;100617.58;111633;1204;24093;-59
2021/09/14 08:06:42;;;;;;;13.20;4.10;;;;;;;17.03;78.96;100619.20;111712;1203;25096;-59
2021/09/14 08:09:13;;;;;;;13.50;3.50;;;;;;;17.09;79.08;100617.44;111696;1206;22463;-59
2021/09/14 08:11:44;;;;;;;9.50;3.30;;;;;;;17.15;78.86;100613.96;111548;1205;22447;-59
2021/09/14 08:14:15;;;;;;;10.50;3.10;;;;;;;17.21;78.71;100618.92;111796;1205;25052;-59
2021/09/14 08:16:46;;;;;;;13.60;3.40;;;;;;;17.26;78.37;100617.99;112000;1203;24424;-61
2021/09/14 08:19:22;;;;;;;12.90;3.80;;;;;;;17.29;78.17;100620.66;111786;1203;24166;-61
2021/09/14 08:21:53;;;;;;;10.60;3.00;;;;;;;17.34;78.15;100624.59;112186;1203;22490;-61
2021/09/14 08:24:25;;;;;;;11.00;3.10;;;;;;;17.39;77.88;100620.33;111755;1204;23764;-60
2021/09/14 08:26:57;;;;;;;12.20;3.50;;;;;;;17.44;77.73;100620.40;111891;1205;23796;-60
2021/09/14 08:29:29;;;;;;;12.70;3.60;;;;;;;17.49;77.54;100622.71;112052;1205;22467;-60
2021/09/14 08:32:02;;;;;;;8.70;3.00;;;;;;;17.55;77.31;100622.45;111788;1205;24114;-60
2021/09/14 08:34:34;;;;;;;10.00;2.30;;;;;;;17.62;77.40;100627.10;111801;1203;22458;-61
2021/09/14 08:37:09;;;;;;;10.40;3.50;;;;;;;17.71;77.19;100624.91;111798;1206;24197;-60
2021/09/14 08:39:40;;;;;;;9.20;2.90;;;;;;;17.80;76.84;100625.09;111860;1203;26342;-61
2021/09/14 08:42:11;;;;;;;8.00;2.00;;;;;;;17.88;76.20;100623.62;111890;1203;25193;-59
2021/09/14 08:44:44;;;;;;;7.30;1.90;;;;;;;17.97;76.13;100626.35;111888;1205;22457;-60
2021/09/14 08:47:17;;;;;;;7.00;2.10;;;;;;;18.03;75.59;100630.77;112128;1205;22468;-59
2021/09/14 08:49:49;;;;;;;11.00;1.80;;;;;;;18.08;75.33;100628.04;111600;1205;24143;-60
2021/09/14 08:52:20;;;;;;;7.60;1.80;;;;;;;18.12;75.23;100629.70;111619;1205;25144;-59
2021/09/14 08:54:51;;;;;;;6.60;1.70;;;;;;;18.20;75.04;100628.52;111548;1205;22455;-59
2021/09/14 08:57:22;;;;;;;7.10;2.00;;;;;;;18.29;74.63;100627.04;111511;1204;26366;-61
2021/09/14 08:59:55;;;;;;;7.50;1.90;;;;;;;18.37;74.43;100623.27;111575;1204;23802;-60
2021/09/14 09:02:27;;;;;;;9.40;2.30;;;;;;;18.47;73.99;100620.36;111607;1204;22429;-59
2021/09/14 09:05:00;;;;;;;7.10;1.90;;;;;;;18.55;73.87;100623.18;111587;1204;22494;-61
2021/09/14 09:07:34;;;;;;;5.60;1.40;;;;;;;18.64;73.17;100622.92;111625;1205;22613;-58
2021/09/14 09:10:14;;;;;;;6.60;1.70;;;;;;;18.70;72.79;100623.12;111543;1204;24172;-59
2021/09/14 09:12:47;;;;;;;4.80;1.50;;;;;;;18.78;72.22;100619.81;111766;1204;25057;-61
2021/09/14 09:15:27;;;;;;;6.10;1.50;;;;;;;18.84;72.06;100621.52;111806;1204;24220;-58
2021/09/14 09:18:15;;;;;;;8.00;1.60;;;;;;;18.92;71.98;100616.30;111775;1205;23743;-60
2021/09/14 09:20:48;;;;;;;5.10;1.40;;;;;;;19.02;71.57;100615.13;112008;1204;23005;-61
2021/09/14 09:23:25;;;;;;;9.20;1.50;;;;;;;19.10;71.04;100613.56;111666;1205;22997;-61
2021/09/14 09:26:08;;;;;;;9.20;1.60;;;;;;;19.18;71.18;100612.45;111806;1205;26280;-60
2021/09/14 09:28:41;;;;;;;13.10;1.70;;;;;;;19.29;71.09;100613.62;112015;1203;22466;-62
2021/09/14 09:31:21;;;;;;;8.30;1.70;;;;;;;19.38;70.49;100611.13;112233;1205;22551;-61
2021/09/14 09:34:03;;;;;;;5.50;1.30;;;;;;;19.47;70.30;100606.20;112217;1204;25350;-62
2021/09/14 09:36:37;;;;;;;6.40;1.30;;;;;;;19.53;70.27;100600.98;112102;1203;22453;-61
2021/09/14 09:39:10;;;;;;;11.70;1.70;;;;;;;19.61;69.91;100601.61;112171;1205;22450;-61
2021/09/14 09:41:53;;;;;;;5.40;1.40;;;;;;;19.64;69.30;100599.03;112179;1205;22986;-61
2021/09/14 09:44:24;;;;;;;5.80;1.20;;;;;;;19.69;68.81;100596.30;111913;1205;22466;-60
2021/09/14 09:46:58;;;;;;;8.50;1.60;;;;;;;19.72;68.37;100597.28;112267;1203;25121;-60
2021/09/14 09:49:29;;;;;;;4.80;1.30;;;;;;;19.79;68.29;100595.52;112127;1205;22467;-60
2021/09/14 09:52:01;;;;;;;6.50;1.30;;;;;;;19.84;67.96;100591.07;112183;1203;24875;-60
2021/09/14 09:54:33;;;;;;;6.50;1.20;;;;;;;19.87;67.73;100589.13;112244;1204;24152;-60
2021/09/14 09:57:05;;;;;;;11.30;1.40;;;;;;;19.89;67.49;100591.15;112112;1204;24197;-60
2021/09/14 09:59:37;;;;;;;5.80;1.10;;;;;;;19.92;67.15;100588.38;112565;1204;22427;-61
2021/09/14 10:02:15;;;;;;;7.70;1.20;;;;;;;19.95;66.72;100587.36;111827;1202;22453;-61
2021/09/14 10:04:51;;;;;;;4.30;0.80;;;;;;;19.99;66.58;100584.98;111618;1204;25166;-60
2021/09/14 10:07:24;;;;;;;4.60;1.10;;;;;;;20.04;66.36;100585.48;111880;1203;25150;-60
2021/09/14 10:09:57;;;;;;;6.50;1.60;;;;;;;20.08;66.13;100581.09;111953;1204;22485;-61
2021/09/14 10:12:31;;;;;;;5.20;1.30;;;;;;;20.14;66.21;100579.67;111847;1203;22448;-62
2021/09/14 10:15:05;;;;;;;7.30;1.00;;;;;;;20.19;65.56;100580.13;111786;1202;24517;-58
2021/09/14 10:17:57;;;;;;;5.30;1.50;;;;;;;20.23;65.10;100582.77;111735;1205;22978;-59
2021/09/14 10:20:39;;;;;;;6.90;1.60;;;;;;;20.24;64.70;100583.72;112027;1204;22446;-62
2021/09/14 10:23:23;;;;;;;6.20;1.30;;;;;;;20.24;64.49;100583.35;111853;1203;22592;-59
2021/09/14 10:26:07;;;;;;;6.70;1.40;;;;;;;20.26;64.47;100587.06;111665;1204;22439;-60
2021/09/14 10:28:46;;;;;;;5.90;1.30;;;;;;;20.30;64.37;100582.30;111933;1206;23356;-61
2021/09/14 10:31:31;;;;;;;6.40;1.50;;;;;;;20.32;64.12;100579.23;111886;1206;22943;-60
2021/09/14 10:34:07;;;;;;;6.70;1.30;;;;;;;20.33;63.88;100579.11;111764;1204;22521;-60
2021/09/14 10:36:43;;;;;;;7.70;1.60;;;;;;;20.34;63.67;100575.88;111934;1204;24123;-59
2021/09/14 10:39:25;;;;;;;7.50;1.20;;;;;;;20.36;63.58;100575.23;112110;1203;25182;-60
2021/09/14 10:41:57;;;;;;;6.60;1.40;;;;;;;20.39;63.37;100574.53;111968;1205;25554;-59
2021/09/14 10:44:30;;;;;;;7.40;1.30;;;;;;;20.38;62.33;100574.70;111692;1203;22488;-61
2021/09/14 10:47:32;;;;;;;5.30;1.50;;;;;;;20.34;62.88;100574.66;111686;1204;22567;-59
2021/09/14 10:50:13;;;;;;;;;;;;;;;;;;;;;
2021/09/14 10:52:51;;;;;;;6.60;1.50;;;;;;;20.37;62.76;100571.20;111809;1205;22526;-60
2021/09/14 10:55:22;;;;;;;6.50;1.50;;;;;;;20.41;62.62;100574.73;111510;1205;25324;-59
2021/09/14 10:57:58;;;;;;;6.60;1.50;;;;;;;20.44;62.55;100573.00;111671;1203;22434;-60
2021/09/14 11:00:31;;;;;;;6.30;1.50;;;;;;;20.48;62.15;100572.62;111519;1194;25183;-60
2021/09/14 11:03:04;;;;;;;5.90;1.30;;;;;;;20.52;62.16;100572.45;111632;1203;25171;-60
2021/09/14 11:05:36;;;;;;;6.20;1.40;;;;;;;20.56;62.22;100572.13;112165;1203;22476;-60
2021/09/14 11:08:10;;;;;;;6.30;1.50;;;;;;;20.59;61.88;100567.89;112052;1203;24130;-63
2021/09/14 11:10:42;;;;;;;6.90;1.50;;;;;;;20.62;61.81;100565.02;112082;1203;22472;-61
2021/09/14 11:13:22;;;;;;;6.80;1.60;;;;;;;20.65;62.00;100561.11;112122;1206;22520;-61
2021/09/14 11:15:58;;;;;;;;;;;;;;;20.70;62.11;100560.39;112234;1205;26400;-59
2021/09/14 11:18:30;;;;;;;6.90;1.90;;;;;;;20.76;62.13;100560.05;112289;1204;22540;-64
2021/09/14 11:21:07;;;;;;;7.20;2.00;;;;;;;20.81;61.84;100563.66;112104;1204;25681;-61
2021/09/14 11:23:40;;;;;;;5.60;1.70;;;;;;;20.81;61.35;100567.37;112176;1205;25124;-61
2021/09/14 11:26:13;;;;;;;5.30;1.80;;;;;;;20.81;60.70;100564.17;111962;1203;22458;-61
2021/09/14 11:28:55;;;;;;;7.30;1.70;;;;;;;20.80;60.91;100558.83;112114;1204;25425;-61
2021/09/14 11:31:30;;;;;;;6.00;1.70;;;;;;;20.82;60.80;100557.85;112147;1205;23109;-60
2021/09/14 11:34:05;;;;;;;10.20;1.70;;;;;;;20.86;60.91;100558.63;112140;1203;22406;-60
2021/09/14 11:36:38;;;;;;;9.40;2.60;;;;;;;20.91;60.89;100551.25;112606;1203;25412;-60
2021/09/14 11:39:09;;;;;;;5.00;1.70;;;;;;;21.00;60.92;100548.87;112303;1203;22790;-61
2021/09/14 11:41:43;;;;;;;8.10;1.90;;;;;;;21.10;60.70;100547.88;112303;1203;24103;-63
2021/09/14 11:44:26;;;;;;;6.60;1.90;;;;;;;21.21;60.97;100549.05;112135;1203;22461;-61
2021/09/14 11:47:06;;;;;;;8.10;2.20;;;;;;;21.27;60.63;100550.61;111817;1205;22606;-61
2021/09/14 11:49:37;;;;;;;8.40;2.10;;;;;;;21.29;60.69;100548.59;112098;1202;24122;-61
2021/09/14 11:52:08;;;;;;;5.70;1.70;;;;;;;21.30;60.48;100544.76;112013;1202;25046;-61
2021/09/14 11:54:40;;;;;;;12.50;2.30;;;;;;;21.31;60.44;100545.30;112491;1206;24924;-60
2021/09/14 11:57:18;;;;;;;9.70;2.20;;;;;;;21.31;59.63;100543.73;111999;1207;22457;-62
2021/09/14 11:59:49;;;;;;;8.60;2.10;;;;;;;21.31;59.34;100544.01;112467;1204;22451;-62
2021/09/14 12:02:21;;;;;;;5.70;2.10;;;;;;;21.32;59.13;100541.83;112106;1204;24108;-61
2021/09/14 12:05:02;;;;;;;5.70;1.60;;;;;;;21.32;58.95;100538.73;112160;1195;25232;-61
2021/09/14 12:07:33;;;;;;;5.70;1.70;;;;;;;21.34;58.54;100540.69;112353;1204;23012;-61
2021/09/14 12:10:09;;;;;;;7.20;2.20;;;;;;;21.41;58.26;100539.58;112034;1204;22986;-60
2021/09/14 12:12:41;;;;;;;9.10;1.90;;;;;;;21.43;58.78;100535.77;112391;1203;22457;-62
2021/09/14 12:15:14;;;;;;;6.40;1.70;;;;;;;21.48;58.77;100535.65;112635;1202;25220;-60
2021/09/14 12:17:46;;;;;;;6.90;2.00;;;;;;;21.54;58.58;100535.31;112290;1203;22537;-60
2021/09/14 12:20:18;;;;;;;6.50;1.50;;;;;;;21.59;58.71;100535.57;112023;1204;25085;-61
2021/09/14 12:22:49;;;;;;;8.90;1.90;;;;;;;21.64;57.99;100532.25;111963;1203;22480;-61
2021/09/14 12:25:20;;;;;;;7.50;2.00;;;;;;;21.66;58.10;100529.90;111970;1203;22457;-61
2021/09/14 12:27:52;;;;;;;10.70;2.10;;;;;;;21.70;58.19;100527.86;111981;1203;22454;-61
2021/09/14 12:30:24;;;;;;;5.30;1.70;;;;;;;21.73;58.12;100527.11;111997;1203;22460;-61
2021/09/14 12:32:56;;;;;;;7.70;1.90;;;;;;;21.79;58.14;100524.11;112102;1203;22477;-61
2021/09/14 12:35:28;;;;;;;7.40;2.20;;;;;;;21.82;57.82;100520.95;112190;1203;22467;-60
2021/09/14 12:38:00;;;;;;;5.30;1.80;;;;;;;21.85;58.12;100522.95;111916;1203;22652;-62